sensor_id;sensor_type;location;lat;lon;timestamp;temperature;humidity
33271;DHT22;53180;51.344;6.152;2022-07-29T00:01:40;19.50;54.30
33271;DHT22;53180;51.344;6.152;2022-07-29T00:04:09;19.40;54.30
33271;DHT22;53180;51.344;6.152;2022-07-29T00:06:38;19.50;54.10
33271;DHT22;53180;51.344;6.152;2022-07-29T00:09:07;19.40;54.20
33271;DHT22;53180;51.344;6.152;2022-07-29T00:11:37;19.40;54.20
33271;DHT22;53180;51.344;6.152;2022-07-29T00:14:05;19.50;54.70
33271;DHT22;53180;51.344;6.152;2022-07-29T00:16:33;19.40;54.60
33271;DHT22;53180;51.344;6.152;2022-07-29T00:19:02;19.40;54.40
33271;DHT22;53180;51.344;6.152;2022-07-29T00:21:33;19.30;54.20
33271;DHT22;53180;51.344;6.152;2022-07-29T00:24:02;19.30;54.60
33271;DHT22;53180;51.344;6.152;2022-07-29T00:26:30;19.30;55.00
33271;DHT22;53180;51.344;6.152;2022-07-29T00:29:01;19.30;54.10
33271;DHT22;53180;51.344;6.152;2022-07-29T00:31:50;19.30;54.60
33271;DHT22;53180;51.344;6.152;2022-07-29T00:34:18;19.30;54.70
33271;DHT22;53180;51.344;6.152;2022-07-29T00:37:04;19.20;54.60
33271;DHT22;53180;51.344;6.152;2022-07-29T00:39:33;19.30;54.80
33271;DHT22;53180;51.344;6.152;2022-07-29T00:42:02;19.20;54.80
33271;DHT22;53180;51.344;6.152;2022-07-29T00:44:36;19.20;54.60
33271;DHT22;53180;51.344;6.152;2022-07-29T00:47:05;19.20;54.40
33271;DHT22;53180;51.344;6.152;2022-07-29T00:49:35;19.20;54.40
33271;DHT22;53180;51.344;6.152;2022-07-29T00:52:04;19.20;54.90
33271;DHT22;53180;51.344;6.152;2022-07-29T00:54:33;19.20;54.50
33271;DHT22;53180;51.344;6.152;2022-07-29T00:57:10;19.10;54.60
33271;DHT22;53180;51.344;6.152;2022-07-29T00:59:41;19.10;54.60
33271;DHT22;53180;51.344;6.152;2022-07-29T01:02:09;19.20;54.90
33271;DHT22;53180;51.344;6.152;2022-07-29T01:04:38;19.10;55.30
33271;DHT22;53180;51.344;6.152;2022-07-29T01:07:07;19.20;55.00
33271;DHT22;53180;51.344;6.152;2022-07-29T01:09:36;19.20;55.00
33271;DHT22;53180;51.344;6.152;2022-07-29T01:12:13;19.10;55.10
33271;DHT22;53180;51.344;6.152;2022-07-29T01:14:45;19.10;55.50
33271;DHT22;53180;51.344;6.152;2022-07-29T01:17:19;19.10;55.50
33271;DHT22;53180;51.344;6.152;2022-07-29T01:19:56;19.10;54.80
33271;DHT22;53180;51.344;6.152;2022-07-29T01:22:31;19.10;54.90
33271;DHT22;53180;51.344;6.152;2022-07-29T01:28:14;19.20;56.60
33271;DHT22;53180;51.344;6.152;2022-07-29T01:30:54;19.10;58.10
33271;DHT22;53180;51.344;6.152;2022-07-29T01:33:25;19.10;58.50
33271;DHT22;53180;51.344;6.152;2022-07-29T01:36:16;19.00;59.00
33271;DHT22;53180;51.344;6.152;2022-07-29T01:38:53;19.00;61.00
33271;DHT22;53180;51.344;6.152;2022-07-29T01:41:24;18.90;63.40
33271;DHT22;53180;51.344;6.152;2022-07-29T01:43:58;18.80;64.40
33271;DHT22;53180;51.344;6.152;2022-07-29T01:46:34;18.70;64.60
33271;DHT22;53180;51.344;6.152;2022-07-29T01:49:10;18.70;65.20
33271;DHT22;53180;51.344;6.152;2022-07-29T01:51:43;18.60;65.00
33271;DHT22;53180;51.344;6.152;2022-07-29T01:54:20;18.50;65.10
33271;DHT22;53180;51.344;6.152;2022-07-29T01:56:55;18.50;64.80
33271;DHT22;53180;51.344;6.152;2022-07-29T01:59:25;18.40;66.50
33271;DHT22;53180;51.344;6.152;2022-07-29T02:01:58;18.40;65.80
33271;DHT22;53180;51.344;6.152;2022-07-29T02:04:28;18.40;67.70
33271;DHT22;53180;51.344;6.152;2022-07-29T02:07:00;18.30;67.80
33271;DHT22;53180;51.344;6.152;2022-07-29T02:09:30;18.20;67.00
33271;DHT22;53180;51.344;6.152;2022-07-29T02:12:00;18.20;67.30
33271;DHT22;53180;51.344;6.152;2022-07-29T02:14:31;18.20;67.00
33271;DHT22;53180;51.344;6.152;2022-07-29T02:17:03;18.20;66.40
33271;DHT22;53180;51.344;6.152;2022-07-29T02:19:32;18.20;66.60
33271;DHT22;53180;51.344;6.152;2022-07-29T02:22:02;18.00;66.20
33271;DHT22;53180;51.344;6.152;2022-07-29T02:24:30;18.00;67.00
33271;DHT22;53180;51.344;6.152;2022-07-29T02:27:00;18.00;66.60
33271;DHT22;53180;51.344;6.152;2022-07-29T02:29:30;18.10;66.00
33271;DHT22;53180;51.344;6.152;2022-07-29T02:32:02;18.10;66.70
33271;DHT22;53180;51.344;6.152;2022-07-29T02:34:31;18.10;66.90
33271;DHT22;53180;51.344;6.152;2022-07-29T02:37:02;18.10;67.50
33271;DHT22;53180;51.344;6.152;2022-07-29T02:39:31;18.20;68.00
33271;DHT22;53180;51.344;6.152;2022-07-29T02:42:03;18.10;69.80
33271;DHT22;53180;51.344;6.152;2022-07-29T02:44:34;18.10;69.70
33271;DHT22;53180;51.344;6.152;2022-07-29T02:47:10;18.00;70.20
33271;DHT22;53180;51.344;6.152;2022-07-29T02:49:48;18.00;71.10
33271;DHT22;53180;51.344;6.152;2022-07-29T02:52:24;18.00;72.60
33271;DHT22;53180;51.344;6.152;2022-07-29T02:54:56;17.90;73.60
33271;DHT22;53180;51.344;6.152;2022-07-29T02:57:32;17.90;72.10
33271;DHT22;53180;51.344;6.152;2022-07-29T03:00:21;17.80;73.00
33271;DHT22;53180;51.344;6.152;2022-07-29T03:02:56;17.80;72.00
33271;DHT22;53180;51.344;6.152;2022-07-29T03:05:27;17.70;74.10
33271;DHT22;53180;51.344;6.152;2022-07-29T03:08:00;17.80;74.10
33271;DHT22;53180;51.344;6.152;2022-07-29T03:10:30;17.70;74.60
33271;DHT22;53180;51.344;6.152;2022-07-29T03:13:00;17.50;74.20
33271;DHT22;53180;51.344;6.152;2022-07-29T03:15:28;17.30;74.10
33271;DHT22;53180;51.344;6.152;2022-07-29T03:18:00;17.30;73.90
33271;DHT22;53180;51.344;6.152;2022-07-29T03:20:28;17.30;74.30
33271;DHT22;53180;51.344;6.152;2022-07-29T03:22:57;17.30;76.20
33271;DHT22;53180;51.344;6.152;2022-07-29T03:25:25;17.20;75.20
33271;DHT22;53180;51.344;6.152;2022-07-29T03:27:54;17.30;74.50
33271;DHT22;53180;51.344;6.152;2022-07-29T03:30:23;17.20;74.90
33271;DHT22;53180;51.344;6.152;2022-07-29T03:32:53;17.20;76.10
33271;DHT22;53180;51.344;6.152;2022-07-29T03:35:26;17.10;76.60
33271;DHT22;53180;51.344;6.152;2022-07-29T03:37:54;17.10;77.50
33271;DHT22;53180;51.344;6.152;2022-07-29T03:40:27;17.10;78.10
33271;DHT22;53180;51.344;6.152;2022-07-29T03:43:00;17.00;77.50
33271;DHT22;53180;51.344;6.152;2022-07-29T03:45:30;17.00;77.50
33271;DHT22;53180;51.344;6.152;2022-07-29T03:48:05;17.00;77.70
33271;DHT22;53180;51.344;6.152;2022-07-29T03:50:37;17.00;77.10
33271;DHT22;53180;51.344;6.152;2022-07-29T03:53:06;17.00;77.80
33271;DHT22;53180;51.344;6.152;2022-07-29T03:55:40;16.90;78.80
33271;DHT22;53180;51.344;6.152;2022-07-29T03:58:10;16.80;80.40
33271;DHT22;53180;51.344;6.152;2022-07-29T04:00:41;16.80;81.40
33271;DHT22;53180;51.344;6.152;2022-07-29T04:03:10;16.60;82.50
33271;DHT22;53180;51.344;6.152;2022-07-29T04:05:42;16.50;82.40
33271;DHT22;53180;51.344;6.152;2022-07-29T04:08:11;16.40;83.00
33271;DHT22;53180;51.344;6.152;2022-07-29T04:10:39;16.30;83.00
33271;DHT22;53180;51.344;6.152;2022-07-29T04:13:08;16.20;83.70
33271;DHT22;53180;51.344;6.152;2022-07-29T04:15:36;16.10;82.80
33271;DHT22;53180;51.344;6.152;2022-07-29T04:18:04;16.00;83.90
33271;DHT22;53180;51.344;6.152;2022-07-29T04:20:33;16.00;84.20
33271;DHT22;53180;51.344;6.152;2022-07-29T04:23:02;16.00;84.70
33271;DHT22;53180;51.344;6.152;2022-07-29T04:25:31;16.00;84.20
33271;DHT22;53180;51.344;6.152;2022-07-29T04:27:59;16.00;84.50
33271;DHT22;53180;51.344;6.152;2022-07-29T04:30:28;16.00;84.00
33271;DHT22;53180;51.344;6.152;2022-07-29T04:32:57;16.00;84.50
33271;DHT22;53180;51.344;6.152;2022-07-29T04:35:27;16.00;85.10
33271;DHT22;53180;51.344;6.152;2022-07-29T04:38:05;16.00;86.40
33271;DHT22;53180;51.344;6.152;2022-07-29T04:40:42;16.00;85.90
33271;DHT22;53180;51.344;6.152;2022-07-29T04:43:12;16.00;86.20
33271;DHT22;53180;51.344;6.152;2022-07-29T04:45:41;16.10;86.50
33271;DHT22;53180;51.344;6.152;2022-07-29T04:48:10;16.00;86.80
33271;DHT22;53180;51.344;6.152;2022-07-29T04:50:38;16.10;87.10
33271;DHT22;53180;51.344;6.152;2022-07-29T04:53:08;16.00;86.70
33271;DHT22;53180;51.344;6.152;2022-07-29T04:55:37;16.10;86.80
33271;DHT22;53180;51.344;6.152;2022-07-29T04:58:05;16.10;86.70
33271;DHT22;53180;51.344;6.152;2022-07-29T05:00:34;16.10;86.60
33271;DHT22;53180;51.344;6.152;2022-07-29T05:03:03;16.10;87.20
33271;DHT22;53180;51.344;6.152;2022-07-29T05:05:31;16.10;87.20
33271;DHT22;53180;51.344;6.152;2022-07-29T05:08:00;16.10;87.20
33271;DHT22;53180;51.344;6.152;2022-07-29T05:10:29;16.10;86.40
33271;DHT22;53180;51.344;6.152;2022-07-29T05:12:58;16.10;86.20
33271;DHT22;53180;51.344;6.152;2022-07-29T05:15:26;16.10;86.40
33271;DHT22;53180;51.344;6.152;2022-07-29T05:17:55;16.10;86.20
33271;DHT22;53180;51.344;6.152;2022-07-29T05:20:23;16.00;86.20
33271;DHT22;53180;51.344;6.152;2022-07-29T05:22:55;16.00;85.80
33271;DHT22;53180;51.344;6.152;2022-07-29T05:25:25;16.10;85.70
33271;DHT22;53180;51.344;6.152;2022-07-29T05:28:11;16.10;86.50
33271;DHT22;53180;51.344;6.152;2022-07-29T05:30:40;16.10;86.50
33271;DHT22;53180;51.344;6.152;2022-07-29T05:33:08;16.00;86.20
33271;DHT22;53180;51.344;6.152;2022-07-29T05:35:57;16.00;86.10
33271;DHT22;53180;51.344;6.152;2022-07-29T05:38:26;16.00;86.40
33271;DHT22;53180;51.344;6.152;2022-07-29T05:40:56;16.00;86.20
33271;DHT22;53180;51.344;6.152;2022-07-29T05:43:28;16.00;86.40
33271;DHT22;53180;51.344;6.152;2022-07-29T05:45:56;16.10;86.20
33271;DHT22;53180;51.344;6.152;2022-07-29T05:48:25;16.00;85.80
33271;DHT22;53180;51.344;6.152;2022-07-29T05:50:54;16.10;86.50
33271;DHT22;53180;51.344;6.152;2022-07-29T05:53:22;16.10;86.10
33271;DHT22;53180;51.344;6.152;2022-07-29T05:55:51;16.10;85.80
33271;DHT22;53180;51.344;6.152;2022-07-29T05:58:19;16.10;85.10
33271;DHT22;53180;51.344;6.152;2022-07-29T06:00:49;16.10;85.10
33271;DHT22;53180;51.344;6.152;2022-07-29T06:03:18;16.10;85.20
33271;DHT22;53180;51.344;6.152;2022-07-29T06:05:46;16.10;85.10
33271;DHT22;53180;51.344;6.152;2022-07-29T06:08:14;16.10;85.00
33271;DHT22;53180;51.344;6.152;2022-07-29T06:10:43;16.10;85.50
33271;DHT22;53180;51.344;6.152;2022-07-29T06:13:12;16.10;85.20
33271;DHT22;53180;51.344;6.152;2022-07-29T06:15:42;16.10;85.40
33271;DHT22;53180;51.344;6.152;2022-07-29T06:18:13;16.00;84.90
33271;DHT22;53180;51.344;6.152;2022-07-29T06:20:42;16.00;85.80
33271;DHT22;53180;51.344;6.152;2022-07-29T06:23:10;16.10;85.70
33271;DHT22;53180;51.344;6.152;2022-07-29T06:25:39;16.00;85.20
33271;DHT22;53180;51.344;6.152;2022-07-29T06:28:08;16.00;85.20
33271;DHT22;53180;51.344;6.152;2022-07-29T06:30:37;16.00;84.80
33271;DHT22;53180;51.344;6.152;2022-07-29T06:33:05;15.90;84.80
33271;DHT22;53180;51.344;6.152;2022-07-29T06:35:35;15.90;84.90
33271;DHT22;53180;51.344;6.152;2022-07-29T06:38:08;15.90;85.10
33271;DHT22;53180;51.344;6.152;2022-07-29T06:40:58;15.80;85.40
33271;DHT22;53180;51.344;6.152;2022-07-29T06:43:32;15.90;85.50
33271;DHT22;53180;51.344;6.152;2022-07-29T06:46:17;15.90;85.60
33271;DHT22;53180;51.344;6.152;2022-07-29T06:48:47;15.90;85.50
33271;DHT22;53180;51.344;6.152;2022-07-29T06:51:17;15.90;85.80
33271;DHT22;53180;51.344;6.152;2022-07-29T06:53:49;15.90;86.10
33271;DHT22;53180;51.344;6.152;2022-07-29T06:56:28;16.00;85.80
33271;DHT22;53180;51.344;6.152;2022-07-29T06:58:57;16.10;85.90
33271;DHT22;53180;51.344;6.152;2022-07-29T07:01:27;16.20;85.90
33271;DHT22;53180;51.344;6.152;2022-07-29T07:03:55;16.20;86.30
33271;DHT22;53180;51.344;6.152;2022-07-29T07:06:25;16.20;86.60
33271;DHT22;53180;51.344;6.152;2022-07-29T07:08:54;16.30;86.20
33271;DHT22;53180;51.344;6.152;2022-07-29T07:11:22;16.30;86.00
33271;DHT22;53180;51.344;6.152;2022-07-29T07:13:51;16.40;85.70
33271;DHT22;53180;51.344;6.152;2022-07-29T07:16:19;16.40;85.60
33271;DHT22;53180;51.344;6.152;2022-07-29T07:18:47;16.50;85.80
33271;DHT22;53180;51.344;6.152;2022-07-29T07:21:16;16.50;85.10
33271;DHT22;53180;51.344;6.152;2022-07-29T07:23:46;16.50;85.40
33271;DHT22;53180;51.344;6.152;2022-07-29T07:26:15;16.50;85.30
33271;DHT22;53180;51.344;6.152;2022-07-29T07:28:43;16.60;85.40
33271;DHT22;53180;51.344;6.152;2022-07-29T07:31:11;16.60;85.40
33271;DHT22;53180;51.344;6.152;2022-07-29T07:33:40;16.60;85.20
33271;DHT22;53180;51.344;6.152;2022-07-29T07:36:09;16.70;85.30
33271;DHT22;53180;51.344;6.152;2022-07-29T07:38:37;16.60;85.10
33271;DHT22;53180;51.344;6.152;2022-07-29T07:41:07;16.60;84.60
33271;DHT22;53180;51.344;6.152;2022-07-29T07:43:35;16.70;85.20
33271;DHT22;53180;51.344;6.152;2022-07-29T07:46:04;16.70;85.50
33271;DHT22;53180;51.344;6.152;2022-07-29T07:48:32;16.70;85.40
33271;DHT22;53180;51.344;6.152;2022-07-29T07:51:01;16.70;84.90
33271;DHT22;53180;51.344;6.152;2022-07-29T07:53:30;16.70;85.00
33271;DHT22;53180;51.344;6.152;2022-07-29T07:55:58;16.70;85.10
33271;DHT22;53180;51.344;6.152;2022-07-29T07:58:39;16.70;84.50
33271;DHT22;53180;51.344;6.152;2022-07-29T08:01:07;16.70;84.90
33271;DHT22;53180;51.344;6.152;2022-07-29T08:03:36;16.70;85.00
33271;DHT22;53180;51.344;6.152;2022-07-29T08:06:05;16.70;85.00
33271;DHT22;53180;51.344;6.152;2022-07-29T08:08:34;16.70;84.80
33271;DHT22;53180;51.344;6.152;2022-07-29T08:11:02;16.70;84.80
33271;DHT22;53180;51.344;6.152;2022-07-29T08:13:36;16.70;85.00
33271;DHT22;53180;51.344;6.152;2022-07-29T08:16:07;16.70;85.20
33271;DHT22;53180;51.344;6.152;2022-07-29T08:18:43;16.70;85.20
33271;DHT22;53180;51.344;6.152;2022-07-29T08:21:13;16.80;85.30
33271;DHT22;53180;51.344;6.152;2022-07-29T08:23:43;16.80;85.30
33271;DHT22;53180;51.344;6.152;2022-07-29T08:26:27;16.80;84.90
33271;DHT22;53180;51.344;6.152;2022-07-29T08:28:55;16.80;84.80
33271;DHT22;53180;51.344;6.152;2022-07-29T08:31:25;16.80;84.90
33271;DHT22;53180;51.344;6.152;2022-07-29T08:33:54;16.90;84.30
33271;DHT22;53180;51.344;6.152;2022-07-29T08:36:23;16.90;84.40
33271;DHT22;53180;51.344;6.152;2022-07-29T08:38:51;17.00;84.50
33271;DHT22;53180;51.344;6.152;2022-07-29T08:41:20;17.00;85.70
33271;DHT22;53180;51.344;6.152;2022-07-29T08:43:49;17.20;85.80
33271;DHT22;53180;51.344;6.152;2022-07-29T08:46:19;17.30;85.80
33271;DHT22;53180;51.344;6.152;2022-07-29T08:48:49;17.30;85.90
33271;DHT22;53180;51.344;6.152;2022-07-29T08:51:19;17.40;85.70
33271;DHT22;53180;51.344;6.152;2022-07-29T08:53:49;17.40;85.90
33271;DHT22;53180;51.344;6.152;2022-07-29T08:56:19;17.50;85.40
33271;DHT22;53180;51.344;6.152;2022-07-29T08:58:48;17.60;85.20
33271;DHT22;53180;51.344;6.152;2022-07-29T09:01:23;17.80;84.60
33271;DHT22;53180;51.344;6.152;2022-07-29T09:04:11;18.10;84.70
33271;DHT22;53180;51.344;6.152;2022-07-29T09:06:43;18.40;83.10
33271;DHT22;53180;51.344;6.152;2022-07-29T09:09:13;18.50;83.60
33271;DHT22;53180;51.344;6.152;2022-07-29T09:11:43;18.80;82.70
33271;DHT22;53180;51.344;6.152;2022-07-29T09:14:12;19.00;81.90
33271;DHT22;53180;51.344;6.152;2022-07-29T09:16:54;19.00;80.10
33271;DHT22;53180;51.344;6.152;2022-07-29T09:19:28;19.10;80.50
33271;DHT22;53180;51.344;6.152;2022-07-29T09:21:59;19.10;79.40
33271;DHT22;53180;51.344;6.152;2022-07-29T09:24:43;19.00;79.10
33271;DHT22;53180;51.344;6.152;2022-07-29T09:27:20;19.10;79.80
33271;DHT22;53180;51.344;6.152;2022-07-29T09:29:57;19.30;80.60
33271;DHT22;53180;51.344;6.152;2022-07-29T09:32:26;19.60;78.50
33271;DHT22;53180;51.344;6.152;2022-07-29T09:35:20;19.80;77.80
33271;DHT22;53180;51.344;6.152;2022-07-29T09:37:51;20.00;78.10
33271;DHT22;53180;51.344;6.152;2022-07-29T09:40:21;20.20;75.20
33271;DHT22;53180;51.344;6.152;2022-07-29T09:42:52;20.20;74.40
33271;DHT22;53180;51.344;6.152;2022-07-29T09:45:29;20.10;72.80
33271;DHT22;53180;51.344;6.152;2022-07-29T09:47:59;20.00;72.70
33271;DHT22;53180;51.344;6.152;2022-07-29T09:50:39;19.80;72.20
33271;DHT22;53180;51.344;6.152;2022-07-29T09:53:08;19.80;72.60
33271;DHT22;53180;51.344;6.152;2022-07-29T09:55:47;19.80;74.00
33271;DHT22;53180;51.344;6.152;2022-07-29T09:58:18;19.80;73.70
33271;DHT22;53180;51.344;6.152;2022-07-29T10:00:49;19.80;73.20
33271;DHT22;53180;51.344;6.152;2022-07-29T10:03:18;19.80;73.70
33271;DHT22;53180;51.344;6.152;2022-07-29T10:06:05;19.90;71.80
33271;DHT22;53180;51.344;6.152;2022-07-29T10:08:35;19.90;72.50
33271;DHT22;53180;51.344;6.152;2022-07-29T10:11:11;19.90;72.20
33271;DHT22;53180;51.344;6.152;2022-07-29T10:13:41;20.00;72.90
33271;DHT22;53180;51.344;6.152;2022-07-29T10:16:12;20.30;73.10
33271;DHT22;53180;51.344;6.152;2022-07-29T10:18:42;20.70;71.80
33271;DHT22;53180;51.344;6.152;2022-07-29T10:21:14;20.80;69.50
33271;DHT22;53180;51.344;6.152;2022-07-29T10:24:01;21.00;69.10
33271;DHT22;53180;51.344;6.152;2022-07-29T10:26:30;21.20;69.10
33271;DHT22;53180;51.344;6.152;2022-07-29T10:28:58;21.20;68.00
33271;DHT22;53180;51.344;6.152;2022-07-29T10:31:34;21.20;69.20
33271;DHT22;53180;51.344;6.152;2022-07-29T10:34:13;21.20;68.90
33271;DHT22;53180;51.344;6.152;2022-07-29T10:36:56;21.30;69.50
33271;DHT22;53180;51.344;6.152;2022-07-29T10:39:43;21.40;68.60
33271;DHT22;53180;51.344;6.152;2022-07-29T10:42:21;21.50;68.60
33271;DHT22;53180;51.344;6.152;2022-07-29T10:45:01;21.50;66.00
33271;DHT22;53180;51.344;6.152;2022-07-29T10:47:30;21.50;67.40
33271;DHT22;53180;51.344;6.152;2022-07-29T10:50:02;21.50;67.10
33271;DHT22;53180;51.344;6.152;2022-07-29T10:52:54;21.50;67.10
33271;DHT22;53180;51.344;6.152;2022-07-29T10:55:34;21.60;66.70
33271;DHT22;53180;51.344;6.152;2022-07-29T10:58:13;21.90;66.50
33271;DHT22;53180;51.344;6.152;2022-07-29T11:00:44;22.00;65.80
33271;DHT22;53180;51.344;6.152;2022-07-29T11:03:44;22.20;64.70
33271;DHT22;53180;51.344;6.152;2022-07-29T11:06:16;22.20;65.20
33271;DHT22;53180;51.344;6.152;2022-07-29T11:09:18;22.30;65.60
33271;DHT22;53180;51.344;6.152;2022-07-29T11:12:04;22.40;66.00
33271;DHT22;53180;51.344;6.152;2022-07-29T11:15:15;22.70;65.70
33271;DHT22;53180;51.344;6.152;2022-07-29T11:18:07;23.00;64.50
33271;DHT22;53180;51.344;6.152;2022-07-29T11:20:56;23.10;63.50
33271;DHT22;53180;51.344;6.152;2022-07-29T11:23:27;23.30;62.70
33271;DHT22;53180;51.344;6.152;2022-07-29T11:26:17;23.50;61.80
33271;DHT22;53180;51.344;6.152;2022-07-29T11:28:55;23.40;60.20
33271;DHT22;53180;51.344;6.152;2022-07-29T11:31:37;23.40;61.20
33271;DHT22;53180;51.344;6.152;2022-07-29T11:34:23;23.60;61.50
33271;DHT22;53180;51.344;6.152;2022-07-29T11:37:17;23.40;59.20
33271;DHT22;53180;51.344;6.152;2022-07-29T11:40:24;23.30;60.20
33271;DHT22;53180;51.344;6.152;2022-07-29T11:42:53;23.30;59.30
33271;DHT22;53180;51.344;6.152;2022-07-29T11:45:23;23.30;59.60
33271;DHT22;53180;51.344;6.152;2022-07-29T11:48:17;23.30;59.20
33271;DHT22;53180;51.344;6.152;2022-07-29T11:50:56;23.40;59.30
33271;DHT22;53180;51.344;6.152;2022-07-29T11:53:25;23.30;59.60
33271;DHT22;53180;51.344;6.152;2022-07-29T11:55:59;23.30;59.50
33271;DHT22;53180;51.344;6.152;2022-07-29T11:58:29;23.40;61.10
33271;DHT22;53180;51.344;6.152;2022-07-29T12:00:59;23.60;61.30
33271;DHT22;53180;51.344;6.152;2022-07-29T12:03:32;23.70;59.90
33271;DHT22;53180;51.344;6.152;2022-07-29T12:06:21;23.90;59.20
33271;DHT22;53180;51.344;6.152;2022-07-29T12:08:49;24.10;57.10
33271;DHT22;53180;51.344;6.152;2022-07-29T12:11:18;24.20;57.20
33271;DHT22;53180;51.344;6.152;2022-07-29T12:13:50;24.40;57.30
33271;DHT22;53180;51.344;6.152;2022-07-29T12:16:19;24.40;56.10
33271;DHT22;53180;51.344;6.152;2022-07-29T12:19:00;24.30;56.70
33271;DHT22;53180;51.344;6.152;2022-07-29T12:21:36;24.10;56.50
33271;DHT22;53180;51.344;6.152;2022-07-29T12:24:23;24.00;55.70
33271;DHT22;53180;51.344;6.152;2022-07-29T12:26:56;24.00;57.80
33271;DHT22;53180;51.344;6.152;2022-07-29T12:29:26;24.00;57.00
33271;DHT22;53180;51.344;6.152;2022-07-29T12:32:02;24.30;58.40
33271;DHT22;53180;51.344;6.152;2022-07-29T12:34:42;24.50;56.00
33271;DHT22;53180;51.344;6.152;2022-07-29T12:37:10;24.50;56.30
33271;DHT22;53180;51.344;6.152;2022-07-29T12:39:39;24.60;55.70
33271;DHT22;53180;51.344;6.152;2022-07-29T12:42:12;24.60;55.40
33271;DHT22;53180;51.344;6.152;2022-07-29T12:44:48;24.60;54.80
33271;DHT22;53180;51.344;6.152;2022-07-29T12:47:18;24.70;55.20
33271;DHT22;53180;51.344;6.152;2022-07-29T12:49:50;24.60;54.10
33271;DHT22;53180;51.344;6.152;2022-07-29T12:52:29;24.60;54.00
33271;DHT22;53180;51.344;6.152;2022-07-29T12:54:59;24.60;54.80
33271;DHT22;53180;51.344;6.152;2022-07-29T12:57:28;24.70;54.50
33271;DHT22;53180;51.344;6.152;2022-07-29T13:00:04;24.70;54.40
33271;DHT22;53180;51.344;6.152;2022-07-29T13:02:37;24.90;52.90
33271;DHT22;53180;51.344;6.152;2022-07-29T13:05:09;25.10;52.90
33271;DHT22;53180;51.344;6.152;2022-07-29T13:07:38;25.20;51.70
33271;DHT22;53180;51.344;6.152;2022-07-29T13:10:22;25.20;52.90
33271;DHT22;53180;51.344;6.152;2022-07-29T13:13:02;25.40;52.30
33271;DHT22;53180;51.344;6.152;2022-07-29T13:15:35;25.60;49.70
33271;DHT22;53180;51.344;6.152;2022-07-29T13:18:04;25.50;49.30
33271;DHT22;53180;51.344;6.152;2022-07-29T13:20:35;25.60;52.10
33271;DHT22;53180;51.344;6.152;2022-07-29T13:23:03;25.70;50.90
33271;DHT22;53180;51.344;6.152;2022-07-29T13:25:32;25.90;51.20
33271;DHT22;53180;51.344;6.152;2022-07-29T13:28:01;26.10;50.10
33271;DHT22;53180;51.344;6.152;2022-07-29T13:30:29;26.20;50.70
33271;DHT22;53180;51.344;6.152;2022-07-29T13:32:57;26.20;50.60
33271;DHT22;53180;51.344;6.152;2022-07-29T13:35:26;26.20;50.70
33271;DHT22;53180;51.344;6.152;2022-07-29T13:37:57;26.30;48.80
33271;DHT22;53180;51.344;6.152;2022-07-29T13:40:26;26.30;49.60
33271;DHT22;53180;51.344;6.152;2022-07-29T13:42:55;26.40;51.60
33271;DHT22;53180;51.344;6.152;2022-07-29T13:45:24;26.60;51.20
33271;DHT22;53180;51.344;6.152;2022-07-29T13:47:55;26.60;50.10
33271;DHT22;53180;51.344;6.152;2022-07-29T13:50:23;26.70;51.40
33271;DHT22;53180;51.344;6.152;2022-07-29T13:52:52;26.80;50.70
33271;DHT22;53180;51.344;6.152;2022-07-29T13:55:21;26.60;49.70
33271;DHT22;53180;51.344;6.152;2022-07-29T13:57:50;26.70;49.60
33271;DHT22;53180;51.344;6.152;2022-07-29T14:00:18;26.70;50.90
33271;DHT22;53180;51.344;6.152;2022-07-29T14:02:47;26.80;50.70
33271;DHT22;53180;51.344;6.152;2022-07-29T14:05:15;27.00;49.80
33271;DHT22;53180;51.344;6.152;2022-07-29T14:07:44;27.00;50.70
33271;DHT22;53180;51.344;6.152;2022-07-29T14:10:12;27.10;49.60
33271;DHT22;53180;51.344;6.152;2022-07-29T14:12:47;27.20;48.40
33271;DHT22;53180;51.344;6.152;2022-07-29T14:15:15;27.30;49.70
33271;DHT22;53180;51.344;6.152;2022-07-29T14:17:43;27.30;48.10
33271;DHT22;53180;51.344;6.152;2022-07-29T14:20:12;27.30;48.20
33271;DHT22;53180;51.344;6.152;2022-07-29T14:22:42;27.30;49.30
33271;DHT22;53180;51.344;6.152;2022-07-29T14:25:11;27.30;49.60
33271;DHT22;53180;51.344;6.152;2022-07-29T14:27:41;27.10;49.00
33271;DHT22;53180;51.344;6.152;2022-07-29T14:30:12;26.70;50.20
33271;DHT22;53180;51.344;6.152;2022-07-29T14:32:41;26.70;50.20
33271;DHT22;53180;51.344;6.152;2022-07-29T14:35:09;26.60;50.10
33271;DHT22;53180;51.344;6.152;2022-07-29T14:37:38;26.40;50.80
33271;DHT22;53180;51.344;6.152;2022-07-29T14:40:08;26.40;49.90
33271;DHT22;53180;51.344;6.152;2022-07-29T14:42:37;26.50;50.70
33271;DHT22;53180;51.344;6.152;2022-07-29T14:45:07;26.60;50.70
33271;DHT22;53180;51.344;6.152;2022-07-29T14:47:38;26.60;50.00
33271;DHT22;53180;51.344;6.152;2022-07-29T14:50:07;26.70;50.20
33271;DHT22;53180;51.344;6.152;2022-07-29T14:52:36;26.70;49.70
33271;DHT22;53180;51.344;6.152;2022-07-29T14:55:05;26.70;49.90
33271;DHT22;53180;51.344;6.152;2022-07-29T14:57:46;26.70;50.20
33271;DHT22;53180;51.344;6.152;2022-07-29T15:00:15;26.60;49.10
33271;DHT22;53180;51.344;6.152;2022-07-29T15:02:45;26.50;50.60
33271;DHT22;53180;51.344;6.152;2022-07-29T15:05:28;26.40;50.20
33271;DHT22;53180;51.344;6.152;2022-07-29T15:07:56;26.40;50.70
33271;DHT22;53180;51.344;6.152;2022-07-29T15:10:25;26.50;50.00
33271;DHT22;53180;51.344;6.152;2022-07-29T15:12:55;26.50;50.20
33271;DHT22;53180;51.344;6.152;2022-07-29T15:15:24;26.40;50.30
33271;DHT22;53180;51.344;6.152;2022-07-29T15:17:54;26.50;50.30
33271;DHT22;53180;51.344;6.152;2022-07-29T15:20:22;26.50;50.30
33271;DHT22;53180;51.344;6.152;2022-07-29T15:22:52;26.50;50.20
33271;DHT22;53180;51.344;6.152;2022-07-29T15:25:22;26.50;49.40
33271;DHT22;53180;51.344;6.152;2022-07-29T15:27:51;26.40;49.30
33271;DHT22;53180;51.344;6.152;2022-07-29T15:30:24;26.20;49.60
33271;DHT22;53180;51.344;6.152;2022-07-29T15:33:01;26.20;50.50
33271;DHT22;53180;51.344;6.152;2022-07-29T15:35:29;26.00;51.50
33271;DHT22;53180;51.344;6.152;2022-07-29T15:37:58;25.90;50.40
33271;DHT22;53180;51.344;6.152;2022-07-29T15:40:26;25.80;51.50
33271;DHT22;53180;51.344;6.152;2022-07-29T15:42:55;25.80;51.50
33271;DHT22;53180;51.344;6.152;2022-07-29T15:45:24;25.80;51.20
33271;DHT22;53180;51.344;6.152;2022-07-29T15:47:59;25.80;51.20
33271;DHT22;53180;51.344;6.152;2022-07-29T15:50:27;25.90;51.90
33271;DHT22;53180;51.344;6.152;2022-07-29T15:52:56;25.80;51.60
33271;DHT22;53180;51.344;6.152;2022-07-29T15:55:24;25.80;50.90
33271;DHT22;53180;51.344;6.152;2022-07-29T15:57:53;25.80;50.30
33271;DHT22;53180;51.344;6.152;2022-07-29T16:00:26;25.90;51.40
33271;DHT22;53180;51.344;6.152;2022-07-29T16:02:55;25.90;50.90
33271;DHT22;53180;51.344;6.152;2022-07-29T16:05:24;25.90;51.70